createdAt,value
2017-02-23T00:00:29.628Z,0
2017-02-23T00:01:40.072Z,0
2017-02-23T00:02:50.476Z,0
2017-02-23T00:04:01.003Z,0
2017-02-23T00:05:11.675Z,0
2017-02-23T00:06:21.702Z,0
2017-02-23T00:07:32.145Z,0
2017-02-23T00:08:42.592Z,0
2017-02-23T00:09:53.015Z,0
2017-02-23T00:11:03.841Z,0
2017-02-23T00:12:14.258Z,0
2017-02-23T00:13:24.728Z,0
2017-02-23T00:14:35.160Z,0
2017-02-23T00:15:45.562Z,0
2017-02-23T00:16:56.259Z,0
2017-02-23T00:18:06.663Z,0
2017-02-23T00:19:17.046Z,0
2017-02-23T00:20:27.099Z,0
2017-02-23T00:21:37.563Z,0
2017-02-23T00:22:48.215Z,0
2017-02-23T00:23:58.591Z,0
2017-02-23T00:25:08.974Z,0
2017-02-23T00:26:19.430Z,0
2017-02-23T00:27:29.808Z,0
2017-02-23T00:28:40.519Z,0
2017-02-23T00:29:50.924Z,0
2017-02-23T00:31:01.315Z,0
2017-02-23T00:32:11.747Z,0
2017-02-23T00:33:22.171Z,0
2017-02-23T00:34:32.430Z,0
2017-02-23T00:35:42.853Z,0
2017-02-23T00:36:53.280Z,0
2017-02-23T00:38:03.286Z,0
2017-02-23T00:39:13.277Z,0
2017-02-23T00:40:23.557Z,0
2017-02-23T00:41:33.983Z,0
2017-02-23T00:42:44.383Z,0
2017-02-23T00:43:54.395Z,0
2017-02-23T00:45:04.802Z,0
2017-02-23T00:46:15.518Z,0
2017-02-23T00:47:25.941Z,0
2017-02-23T00:48:36.455Z,0
2017-02-23T00:49:46.960Z,0
2017-02-23T00:50:57.373Z,0
2017-02-23T00:52:07.733Z,0
2017-02-23T00:53:18.152Z,0
2017-02-23T00:54:28.126Z,0
2017-02-23T00:55:38.092Z,0
2017-02-23T00:56:48.540Z,0
2017-02-23T00:57:59.191Z,0
2017-02-23T00:59:09.568Z,0
2017-02-23T01:00:19.953Z,0
2017-02-23T01:01:30.379Z,0
2017-02-23T01:02:40.773Z,0
2017-02-23T01:03:51.422Z,0
2017-02-23T01:05:01.820Z,0
2017-02-23T01:06:12.229Z,0
2017-02-23T01:07:22.655Z,0
2017-02-23T01:08:33.075Z,0
2017-02-23T01:09:43.735Z,0
2017-02-23T01:10:53.719Z,0
2017-02-23T01:12:03.738Z,0
2017-02-23T01:13:14.258Z,0
2017-02-23T01:14:24.639Z,0
2017-02-23T01:15:35.336Z,0
2017-02-23T01:16:45.730Z,0
2017-02-23T01:17:56.114Z,0
2017-02-23T01:19:06.504Z,0
2017-02-23T01:20:16.513Z,0
2017-02-23T01:21:26.751Z,0
2017-02-23T01:22:37.175Z,0
2017-02-23T01:23:47.564Z,0
2017-02-23T01:24:58.035Z,0
2017-02-23T01:26:08.420Z,0
2017-02-23T01:27:19.058Z,0
2017-02-23T01:28:29.437Z,0
2017-02-23T01:29:39.959Z,0
2017-02-23T01:30:49.955Z,0
2017-02-23T01:31:59.945Z,0
2017-02-23T01:33:10.600Z,0
2017-02-23T01:34:20.612Z,0
2017-02-23T01:35:30.622Z,0
2017-02-23T01:36:41.017Z,0
2017-02-23T01:37:51.430Z,0
2017-02-23T01:39:02.137Z,0
2017-02-23T01:40:12.517Z,0
2017-02-23T01:41:22.506Z,0
2017-02-23T01:42:32.887Z,0
2017-02-23T01:43:43.264Z,0
2017-02-23T01:44:54.004Z,0
2017-02-23T01:46:04.419Z,0
2017-02-23T01:47:14.829Z,0
2017-02-23T01:48:25.256Z,0
2017-02-23T01:49:35.234Z,0
2017-02-23T01:50:45.878Z,0
2017-02-23T01:51:56.257Z,0
2017-02-23T01:53:06.627Z,0
2017-02-23T01:54:16.619Z,0
2017-02-23T01:55:26.632Z,0
2017-02-23T01:56:37.301Z,0
2017-02-23T01:57:47.338Z,0
2017-02-23T01:58:57.710Z,0
2017-02-23T02:00:08.232Z,0
2017-02-23T02:01:18.615Z,0
2017-02-23T02:02:29.451Z,0
2017-02-23T02:03:39.898Z,0
2017-02-23T02:04:50.285Z,0
2017-02-23T02:06:00.812Z,0
2017-02-23T02:07:11.216Z,0
2017-02-23T02:08:21.871Z,0
2017-02-23T02:09:32.254Z,0
2017-02-23T02:10:42.659Z,0
2017-02-23T02:11:53.025Z,0
2017-02-23T02:13:03.425Z,0
2017-02-23T02:14:14.061Z,0
2017-02-23T02:15:24.504Z,0
2017-02-23T02:16:34.887Z,0
2017-02-23T02:17:44.984Z,0
2017-02-23T02:18:55.353Z,0
2017-02-23T02:20:05.606Z,0
2017-02-23T02:21:16.010Z,0
2017-02-23T02:22:26.437Z,0
2017-02-23T02:23:36.925Z,0
2017-02-23T02:24:47.386Z,0
2017-02-23T02:25:58.031Z,0
2017-02-23T02:27:08.408Z,0
2017-02-23T02:28:18.830Z,0
2017-02-23T02:29:29.234Z,0
2017-02-23T02:30:39.641Z,0
2017-02-23T02:31:49.903Z,0
2017-02-23T02:33:00.341Z,0
2017-02-23T02:34:10.735Z,0
2017-02-23T02:35:21.112Z,0
2017-02-23T02:36:31.502Z,0
2017-02-23T02:37:41.353Z,0
2017-02-23T02:38:51.796Z,0
2017-02-23T02:40:01.796Z,0
2017-02-23T02:41:12.161Z,0
2017-02-23T02:42:22.521Z,0
2017-02-23T02:43:33.209Z,0
2017-02-23T02:44:43.707Z,0
2017-02-23T02:45:54.079Z,0
2017-02-23T02:47:04.480Z,0
2017-02-23T02:48:14.859Z,0
2017-02-23T02:49:25.503Z,0
2017-02-23T02:50:35.913Z,0
2017-02-23T02:51:46.307Z,0
2017-02-23T02:52:56.713Z,0
2017-02-23T02:54:07.097Z,0
2017-02-23T02:55:17.736Z,0
2017-02-23T02:56:28.188Z,0
2017-02-23T02:57:38.250Z,0
2017-02-23T02:58:48.624Z,0
2017-02-23T02:59:59.092Z,0
2017-02-23T03:01:09.380Z,0
2017-02-23T03:02:19.757Z,0
2017-02-23T03:03:30.173Z,0
2017-02-23T03:04:40.550Z,0
2017-02-23T03:05:51.024Z,0
2017-02-23T03:07:01.675Z,0
2017-02-23T03:08:12.059Z,0
2017-02-23T03:09:22.480Z,0
2017-02-23T03:10:32.863Z,0
2017-02-23T03:11:43.245Z,0
2017-02-23T03:12:53.514Z,0
2017-02-23T03:14:03.861Z,0
2017-02-23T03:15:14.229Z,0
2017-02-23T03:16:24.278Z,0
2017-02-23T03:17:34.664Z,0
2017-02-23T03:18:44.930Z,0
2017-02-23T03:19:54.894Z,0
2017-02-23T03:21:05.390Z,0
2017-02-23T03:22:15.750Z,0
2017-02-23T03:23:26.163Z,0
2017-02-23T03:24:36.822Z,0
2017-02-23T03:25:46.549Z,0
2017-02-23T03:26:56.897Z,0
2017-02-23T03:28:07.368Z,0
2017-02-23T03:29:17.736Z,0
2017-02-23T03:30:28.330Z,0
2017-02-23T03:31:38.675Z,0
2017-02-23T03:32:48.769Z,0
2017-02-23T03:33:59.141Z,0
2017-02-23T03:35:08.269Z,0
2017-02-23T03:36:18.942Z,0
2017-02-23T03:37:29.304Z,0
2017-02-23T03:38:39.822Z,0
2017-02-23T03:39:49.789Z,0
2017-02-23T03:41:00.148Z,0
2017-02-23T03:42:11.087Z,0
2017-02-23T03:43:20.662Z,0
2017-02-23T03:44:31.179Z,0
2017-02-23T03:45:41.127Z,0
2017-02-23T03:46:51.053Z,0
2017-02-23T03:48:01.665Z,0
2017-02-23T03:49:11.244Z,0
2017-02-23T03:50:21.600Z,0
2017-02-23T03:51:31.947Z,0
2017-02-23T03:52:42.298Z,0
2017-02-23T03:53:52.931Z,0
2017-02-23T03:55:02.877Z,0
2017-02-23T03:56:12.454Z,0
2017-02-23T03:57:22.394Z,0
2017-02-23T03:58:32.380Z,0
2017-02-23T03:59:42.632Z,0
2017-02-23T04:00:52.994Z,0
2017-02-23T04:02:03.343Z,0
2017-02-23T04:03:13.869Z,0
2017-02-23T04:04:23.479Z,0
2017-02-23T04:05:34.106Z,0
2017-02-23T04:06:44.122Z,0
2017-02-23T04:07:54.525Z,0
2017-02-23T04:09:04.600Z,0
2017-02-23T04:10:14.923Z,0
2017-02-23T04:11:24.320Z,0
2017-02-23T04:12:33.620Z,0
2017-02-23T04:13:43.221Z,0
2017-02-23T04:14:52.387Z,0
2017-02-23T04:16:01.140Z,0
2017-02-23T04:17:10.133Z,0
2017-02-23T04:18:18.898Z,0
2017-02-23T04:19:27.620Z,0
2017-02-23T04:20:36.413Z,0
2017-02-23T04:21:45.563Z,0
2017-02-23T04:22:54.963Z,0
2017-02-23T04:24:03.708Z,0
2017-02-23T04:25:12.472Z,0
2017-02-23T04:26:21.198Z,0
2017-02-23T04:27:29.951Z,0
2017-02-23T04:28:38.919Z,0
2017-02-23T04:29:47.664Z,0
2017-02-23T04:30:56.497Z,0
2017-02-23T04:32:06.075Z,0
2017-02-23T04:33:15.277Z,0
2017-02-23T04:34:24.298Z,0
2017-02-23T04:35:34.308Z,0
2017-02-23T04:36:43.452Z,0
2017-02-23T04:37:52.619Z,0
2017-02-23T04:39:01.768Z,0
2017-02-23T04:40:10.767Z,0
2017-02-23T04:41:19.953Z,0
2017-02-23T04:42:29.095Z,0
2017-02-23T04:43:37.808Z,0
2017-02-23T04:44:46.527Z,0
2017-02-23T04:45:56.871Z,0
2017-02-23T04:47:05.647Z,0
2017-02-23T04:48:14.785Z,0
2017-02-23T04:49:24.149Z,0
2017-02-23T04:50:32.898Z,0
2017-02-23T04:51:42.301Z,0
2017-02-23T04:52:51.027Z,0
2017-02-23T04:53:59.763Z,0
2017-02-23T04:55:09.341Z,0
2017-02-23T04:56:18.541Z,0
2017-02-23T04:57:27.536Z,0
2017-02-23T04:58:36.695Z,0
2017-02-23T04:59:45.455Z,0
2017-02-23T05:00:54.577Z,0
2017-02-23T05:02:03.348Z,0
2017-02-23T05:03:13.200Z,0
2017-02-23T05:04:21.952Z,0
2017-02-23T05:05:30.698Z,0
2017-02-23T05:06:39.460Z,0
2017-02-23T05:07:48.595Z,0
2017-02-23T05:08:58.991Z,0
2017-02-23T05:10:08.589Z,0
2017-02-23T05:11:17.371Z,0
2017-02-23T05:12:26.512Z,0
2017-02-23T05:13:35.688Z,0
2017-02-23T05:14:44.682Z,0
2017-02-23T05:15:53.928Z,0
2017-02-23T05:17:03.087Z,0
2017-02-23T05:18:11.840Z,0
2017-02-23T05:19:21.003Z,0
2017-02-23T05:20:30.875Z,0
2017-02-23T05:21:39.841Z,0
2017-02-23T05:22:48.562Z,0
2017-02-23T05:23:57.327Z,0
2017-02-23T05:25:06.517Z,0
2017-02-23T05:26:15.550Z,0
2017-02-23T05:27:25.669Z,0
2017-02-23T05:28:34.420Z,0
2017-02-23T05:29:44.511Z,0
2017-02-23T05:30:53.661Z,0
2017-02-23T05:32:02.662Z,0
2017-02-23T05:33:11.815Z,0
2017-02-23T05:34:20.558Z,0
2017-02-23T05:35:29.406Z,0
2017-02-23T05:36:39.017Z,0
2017-02-23T05:37:48.599Z,0
2017-02-23T05:38:58.166Z,0
2017-02-23T05:40:07.315Z,0
2017-02-23T05:41:16.033Z,0
2017-02-23T05:42:24.766Z,0
2017-02-23T05:43:33.748Z,0
2017-02-23T05:44:42.895Z,0
2017-02-23T05:45:51.688Z,0
2017-02-23T05:47:00.443Z,0
2017-02-23T05:48:09.991Z,0
2017-02-23T05:49:18.988Z,0
2017-02-23T05:50:27.719Z,0
2017-02-23T05:51:36.540Z,0
2017-02-23T05:52:45.372Z,0
2017-02-23T05:53:54.246Z,0
2017-02-23T05:55:03.301Z,0
2017-02-23T05:56:12.023Z,0
2017-02-23T05:57:20.767Z,0
2017-02-23T05:58:29.534Z,0
2017-02-23T05:59:38.238Z,0
2017-02-23T06:00:47.238Z,0
2017-02-23T06:01:55.989Z,0
2017-02-23T06:03:04.729Z,0
2017-02-23T06:04:13.491Z,0
2017-02-23T06:05:22.230Z,5
2017-02-23T06:06:31.631Z,5
2017-02-23T06:07:40.407Z,5
2017-02-23T06:08:49.134Z,5
2017-02-23T06:09:57.900Z,5
2017-02-23T06:11:06.718Z,10
2017-02-23T06:12:16.162Z,10
2017-02-23T06:13:24.891Z,10
2017-02-23T06:14:33.638Z,10
2017-02-23T06:15:42.386Z,15
2017-02-23T06:16:51.155Z,15
2017-02-23T06:18:00.182Z,15
2017-02-23T06:19:08.968Z,20
2017-02-23T06:20:17.883Z,20
2017-02-23T06:21:27.029Z,25
2017-02-23T06:22:35.857Z,25
2017-02-23T06:23:45.708Z,25
2017-02-23T06:24:54.893Z,30
2017-02-23T06:26:03.640Z,30
2017-02-23T06:27:12.409Z,35
2017-02-23T06:28:21.202Z,35
2017-02-23T06:29:30.202Z,35
2017-02-23T06:30:38.974Z,35
2017-02-23T06:31:47.734Z,40
2017-02-23T06:32:56.902Z,40
2017-02-23T06:34:05.684Z,45
2017-02-23T06:35:16.025Z,45
2017-02-23T06:36:24.800Z,50
2017-02-23T06:37:33.542Z,50
2017-02-23T06:38:42.696Z,50
2017-02-23T06:39:51.868Z,55
2017-02-23T06:41:02.139Z,55
2017-02-23T06:42:12.014Z,60
2017-02-23T06:43:22.417Z,65
2017-02-23T06:44:32.037Z,70
2017-02-23T06:45:42.093Z,75
2017-02-23T06:46:52.775Z,75
2017-02-23T06:48:02.829Z,75
2017-02-23T06:49:12.942Z,75
2017-02-23T06:50:23.356Z,85
2017-02-23T06:51:33.755Z,90
2017-02-23T06:52:44.467Z,90
2017-02-23T06:53:54.484Z,90
2017-02-23T06:55:04.507Z,95
2017-02-23T06:56:14.515Z,100
2017-02-23T06:57:24.522Z,100
2017-02-23T06:58:34.483Z,100
2017-02-23T06:59:44.167Z,100
2017-02-23T07:00:54.564Z,95
2017-02-23T07:02:05.019Z,95
2017-02-23T07:03:15.440Z,100
2017-02-23T07:04:26.106Z,105
2017-02-23T07:05:36.620Z,100
2017-02-23T07:06:46.250Z,100
2017-02-23T07:07:56.784Z,100
2017-02-23T07:09:07.193Z,105
2017-02-23T07:10:17.050Z,100
2017-02-23T07:11:27.523Z,95
2017-02-23T07:12:37.951Z,90
2017-02-23T07:13:48.387Z,85
2017-02-23T07:14:58.423Z,90
2017-02-23T07:16:09.099Z,90
2017-02-23T07:17:19.525Z,100
2017-02-23T07:18:29.958Z,100
2017-02-23T07:19:40.367Z,95
2017-02-23T07:20:50.851Z,90
2017-02-23T07:22:01.129Z,90
2017-02-23T07:23:11.593Z,90
2017-02-23T07:24:21.994Z,100
2017-02-23T07:25:32.413Z,95
2017-02-23T07:26:42.855Z,90
2017-02-23T07:27:53.589Z,85
2017-02-23T07:29:04.017Z,80
2017-02-23T07:30:14.462Z,85
2017-02-23T07:31:24.872Z,85
2017-02-23T07:32:35.351Z,75
2017-02-23T07:33:46.036Z,65
2017-02-23T07:34:56.462Z,60
2017-02-23T07:36:06.872Z,55
2017-02-23T07:37:17.316Z,60
2017-02-23T07:38:27.744Z,65
2017-02-23T07:39:38.411Z,70
2017-02-23T07:40:48.956Z,70
2017-02-23T07:41:59.370Z,80
2017-02-23T07:43:09.897Z,90
2017-02-23T07:44:20.379Z,90
2017-02-23T07:45:31.128Z,90
2017-02-23T07:46:41.570Z,85
2017-02-23T07:47:52.024Z,90
2017-02-23T07:49:02.483Z,95
2017-02-23T07:50:12.927Z,100
2017-02-23T07:51:23.206Z,95
2017-02-23T07:52:33.650Z,85
2017-02-23T07:53:44.124Z,85
2017-02-23T07:54:54.562Z,85
2017-02-23T07:56:04.609Z,90
2017-02-23T07:57:15.290Z,95
2017-02-23T07:58:25.764Z,100
2017-02-23T07:59:36.240Z,110
2017-02-23T08:00:46.707Z,125
2017-02-23T08:01:57.141Z,135
2017-02-23T08:03:07.851Z,135
2017-02-23T08:04:17.880Z,135
2017-02-23T08:05:28.350Z,145
2017-02-23T08:06:38.777Z,155
2017-02-23T08:07:49.234Z,160
2017-02-23T08:08:59.980Z,155
2017-02-23T08:10:10.478Z,150
2017-02-23T08:11:20.894Z,150
2017-02-23T08:12:31.349Z,150
2017-02-23T08:13:41.784Z,145
2017-02-23T08:14:52.470Z,140
2017-02-23T08:16:02.501Z,140
2017-02-23T08:17:12.935Z,140
2017-02-23T08:18:23.393Z,150
2017-02-23T08:19:33.819Z,160
2017-02-23T08:20:44.481Z,180
2017-02-23T08:21:55.083Z,170
2017-02-23T08:23:05.611Z,155
2017-02-23T08:24:16.048Z,155
2017-02-23T08:25:26.481Z,180
2017-02-23T08:26:37.200Z,185
2017-02-23T08:27:47.630Z,170
2017-02-23T08:28:58.047Z,175
2017-02-23T08:30:08.588Z,170
2017-02-23T08:31:19.009Z,200
2017-02-23T08:32:29.706Z,225
2017-02-23T08:33:40.134Z,220
2017-02-23T08:34:50.563Z,200
2017-02-23T08:36:01.157Z,225
2017-02-23T08:37:11.559Z,250
2017-02-23T08:38:22.212Z,250
2017-02-23T08:39:32.610Z,220
2017-02-23T08:40:43.045Z,175
2017-02-23T08:41:53.550Z,135
2017-02-23T08:43:03.244Z,115
2017-02-23T08:44:13.919Z,135
2017-02-23T08:45:24.319Z,145
2017-02-23T08:46:34.734Z,130
2017-02-23T08:47:45.144Z,140
2017-02-23T08:48:55.550Z,135
2017-02-23T08:50:06.407Z,130
2017-02-23T08:51:16.564Z,120
2017-02-23T08:52:27.090Z,120
2017-02-23T08:53:37.515Z,120
2017-02-23T08:54:47.947Z,125
2017-02-23T08:55:58.647Z,130
2017-02-23T08:57:09.104Z,150
2017-02-23T08:58:19.142Z,155
2017-02-23T08:59:29.141Z,160
2017-02-23T09:00:39.537Z,150
2017-02-23T09:01:49.380Z,125
2017-02-23T09:02:59.846Z,125
2017-02-23T09:04:09.874Z,125
2017-02-23T09:05:20.276Z,120
2017-02-23T09:06:30.288Z,120
2017-02-23T09:07:41.052Z,110
2017-02-23T09:08:51.464Z,95
2017-02-23T09:10:01.866Z,90
2017-02-23T09:11:12.261Z,70
2017-02-23T09:12:22.679Z,60
2017-02-23T09:13:32.966Z,80
2017-02-23T09:14:43.499Z,100
2017-02-23T09:15:53.918Z,100
2017-02-23T09:17:04.422Z,105
2017-02-23T09:18:14.845Z,110
2017-02-23T09:19:25.568Z,95
2017-02-23T09:20:35.984Z,80
2017-02-23T09:21:46.032Z,105
2017-02-23T09:22:56.436Z,180
2017-02-23T09:24:06.847Z,175
2017-02-23T09:25:17.526Z,160
2017-02-23T09:26:27.929Z,185
2017-02-23T09:27:37.939Z,240
2017-02-23T09:28:48.419Z,255
2017-02-23T09:29:58.846Z,220
2017-02-23T09:31:09.571Z,230
2017-02-23T09:32:20.007Z,205
2017-02-23T09:33:30.013Z,220
2017-02-23T09:34:40.021Z,265
2017-02-23T09:35:50.451Z,285
2017-02-23T09:37:01.130Z,265
2017-02-23T09:38:11.569Z,255
2017-02-23T09:39:22.018Z,245
2017-02-23T09:40:32.460Z,225
2017-02-23T09:41:42.482Z,200
2017-02-23T09:42:52.408Z,200
2017-02-23T09:44:02.828Z,180
2017-02-23T09:45:13.379Z,175
2017-02-23T09:46:23.810Z,190
2017-02-23T09:47:34.237Z,185
2017-02-23T09:48:44.940Z,180
2017-02-23T09:49:55.347Z,175
2017-02-23T09:51:05.384Z,205
2017-02-23T09:52:15.820Z,225
2017-02-23T09:53:26.312Z,220
2017-02-23T09:54:36.997Z,260
2017-02-23T09:55:47.427Z,325
2017-02-23T09:56:57.858Z,465
2017-02-23T09:58:08.273Z,585
2017-02-23T09:59:18.291Z,620
2017-02-23T10:00:28.978Z,665
2017-02-23T10:01:39.068Z,670
2017-02-23T10:02:49.478Z,555
2017-02-23T10:03:59.926Z,525
2017-02-23T10:05:09.945Z,530
2017-02-23T10:06:20.620Z,500
2017-02-23T10:07:31.093Z,530
2017-02-23T10:08:41.637Z,565
2017-02-23T10:09:52.056Z,570
2017-02-23T10:11:02.482Z,505
2017-02-23T10:12:13.169Z,460
2017-02-23T10:13:23.659Z,480
2017-02-23T10:14:34.054Z,435
2017-02-23T10:15:44.082Z,380
2017-02-23T10:16:54.639Z,335
2017-02-23T10:18:05.298Z,305
2017-02-23T10:19:15.696Z,270
2017-02-23T10:20:25.733Z,265
2017-02-23T10:21:35.767Z,275
2017-02-23T10:22:46.179Z,240
2017-02-23T10:23:56.846Z,230
2017-02-23T10:25:07.392Z,270
2017-02-23T10:26:17.818Z,300
2017-02-23T10:27:28.255Z,290
2017-02-23T10:28:38.666Z,220
2017-02-23T10:29:49.416Z,200
2017-02-23T10:30:59.487Z,220
2017-02-23T10:32:09.895Z,220
2017-02-23T10:33:20.328Z,220
2017-02-23T10:34:30.328Z,180
2017-02-23T10:35:41.112Z,165
2017-02-23T10:36:51.115Z,170
2017-02-23T10:38:01.564Z,190
2017-02-23T10:39:11.979Z,190
2017-02-23T10:40:22.395Z,170
2017-02-23T10:41:33.112Z,165
2017-02-23T10:42:43.521Z,180
2017-02-23T10:43:53.941Z,180
2017-02-23T10:45:04.360Z,190
2017-02-23T10:46:14.777Z,205
2017-02-23T10:47:25.480Z,215
2017-02-23T10:48:35.997Z,225
2017-02-23T10:49:46.447Z,255
2017-02-23T10:50:56.456Z,280
2017-02-23T10:52:06.880Z,270
2017-02-23T10:53:17.162Z,290
2017-02-23T10:54:27.625Z,360
2017-02-23T10:55:38.035Z,375
2017-02-23T10:56:48.192Z,380
2017-02-23T10:57:58.622Z,390
2017-02-23T10:59:09.403Z,415
2017-02-23T11:00:19.839Z,370
2017-02-23T11:01:30.307Z,330
2017-02-23T11:02:40.824Z,355
2017-02-23T11:03:51.394Z,305
2017-02-23T11:05:02.123Z,345
2017-02-23T11:06:12.153Z,320
2017-02-23T11:07:22.595Z,295
2017-02-23T11:08:32.604Z,270
2017-02-23T11:09:43.021Z,255
2017-02-23T11:10:53.676Z,265
2017-02-23T11:12:04.203Z,290
2017-02-23T11:13:14.236Z,300
2017-02-23T11:14:24.243Z,305
2017-02-23T11:15:34.751Z,310
2017-02-23T11:16:45.433Z,310
2017-02-23T11:17:55.839Z,330
2017-02-23T11:19:06.258Z,310
2017-02-23T11:20:16.675Z,290
2017-02-23T11:21:27.129Z,310
2017-02-23T11:22:37.906Z,280
2017-02-23T11:23:48.331Z,260
2017-02-23T11:24:58.393Z,245
2017-02-23T11:26:08.810Z,220
2017-02-23T11:27:19.215Z,205
2017-02-23T11:28:29.976Z,190
2017-02-23T11:29:40.366Z,195
2017-02-23T11:30:50.792Z,185
2017-02-23T11:32:01.233Z,205
2017-02-23T11:33:11.695Z,205
2017-02-23T11:34:22.355Z,215
2017-02-23T11:35:32.771Z,225
2017-02-23T11:36:43.180Z,220
2017-02-23T11:37:53.610Z,235
2017-02-23T11:39:04.050Z,240
2017-02-23T11:40:14.317Z,230
2017-02-23T11:41:24.742Z,225
2017-02-23T11:42:35.175Z,215
2017-02-23T11:43:45.618Z,230
2017-02-23T11:44:55.634Z,215
2017-02-23T11:46:06.310Z,200
2017-02-23T11:47:16.309Z,155
2017-02-23T11:48:26.748Z,200
2017-02-23T11:49:36.787Z,195
2017-02-23T11:50:47.203Z,240
2017-02-23T11:51:57.906Z,230
2017-02-23T11:53:08.350Z,210
2017-02-23T11:54:18.813Z,210
2017-02-23T11:55:29.235Z,215
2017-02-23T11:56:39.656Z,220
2017-02-23T11:57:50.340Z,225
2017-02-23T11:59:00.763Z,230
2017-02-23T12:00:11.180Z,230
2017-02-23T12:01:21.592Z,220
2017-02-23T12:02:32.030Z,240
2017-02-23T12:03:42.683Z,295
2017-02-23T12:04:53.100Z,300
2017-02-23T12:06:03.132Z,310
2017-02-23T12:07:13.115Z,320
2017-02-23T12:08:23.173Z,305
2017-02-23T12:09:33.508Z,245
2017-02-23T12:10:43.917Z,245
2017-02-23T12:11:53.930Z,240
2017-02-23T12:13:04.365Z,265
2017-02-23T12:14:14.785Z,270
2017-02-23T12:15:25.573Z,260
2017-02-23T12:16:36.001Z,255
2017-02-23T12:17:46.411Z,265
2017-02-23T12:18:56.826Z,255
2017-02-23T12:20:07.342Z,265
2017-02-23T12:21:18.016Z,255
2017-02-23T12:22:28.065Z,235
2017-02-23T12:23:38.497Z,235
2017-02-23T12:24:48.925Z,245
2017-02-23T12:25:59.391Z,245
2017-02-23T12:27:10.093Z,225
2017-02-23T12:28:20.544Z,230
2017-02-23T12:29:30.964Z,230
2017-02-23T12:30:41.370Z,225
2017-02-23T12:31:51.802Z,205
2017-02-23T12:33:02.529Z,260
2017-02-23T12:34:12.948Z,285
2017-02-23T12:35:23.364Z,280
2017-02-23T12:36:33.385Z,270
2017-02-23T12:37:43.798Z,255
2017-02-23T12:38:54.544Z,285
2017-02-23T12:40:04.942Z,235
2017-02-23T12:41:15.376Z,225
2017-02-23T12:42:25.828Z,260
2017-02-23T12:43:36.316Z,265
2017-02-23T12:44:47.059Z,255
2017-02-23T12:45:57.514Z,280
2017-02-23T12:47:07.951Z,305
2017-02-23T12:48:18.369Z,330
2017-02-23T12:49:28.897Z,305
2017-02-23T12:50:39.564Z,280
2017-02-23T12:51:49.974Z,270
2017-02-23T12:53:00.386Z,250
2017-02-23T12:54:10.825Z,250
2017-02-23T12:55:21.301Z,250
2017-02-23T12:56:32.178Z,270
2017-02-23T12:57:42.589Z,290
2017-02-23T12:58:52.599Z,295
2017-02-23T13:00:03.193Z,300
2017-02-23T13:01:13.248Z,250
2017-02-23T13:02:24.197Z,220
2017-02-23T13:03:34.695Z,230
2017-02-23T13:04:45.114Z,215
2017-02-23T13:05:55.563Z,235
2017-02-23T13:07:05.988Z,240
2017-02-23T13:08:16.663Z,265
2017-02-23T13:09:27.353Z,270
2017-02-23T13:10:37.630Z,270
2017-02-23T13:11:48.058Z,260
2017-02-23T13:12:58.513Z,240
2017-02-23T13:14:09.263Z,240
2017-02-23T13:15:19.705Z,220
2017-02-23T13:16:30.131Z,235
2017-02-23T13:17:40.586Z,250
2017-02-23T13:18:51.038Z,260
2017-02-23T13:20:01.785Z,280
2017-02-23T13:21:12.224Z,285
2017-02-23T13:22:22.789Z,290
2017-02-23T13:23:33.332Z,275
2017-02-23T13:24:42.969Z,290
2017-02-23T13:25:53.630Z,280
2017-02-23T13:27:04.040Z,275
2017-02-23T13:28:14.623Z,250
2017-02-23T13:29:25.092Z,255
2017-02-23T13:30:35.528Z,210
2017-02-23T13:31:46.257Z,180
2017-02-23T13:32:56.695Z,170
2017-02-23T13:34:07.140Z,175
2017-02-23T13:35:17.598Z,180
2017-02-23T13:36:28.011Z,155
2017-02-23T13:37:38.693Z,145
2017-02-23T13:38:49.111Z,140
2017-02-23T13:39:59.570Z,125
2017-02-23T13:41:09.986Z,140
2017-02-23T13:42:20.590Z,145
2017-02-23T13:43:31.351Z,120
2017-02-23T13:44:41.768Z,110
2017-02-23T13:45:51.794Z,95
2017-02-23T13:47:02.203Z,105
2017-02-23T13:48:12.626Z,110
2017-02-23T13:49:23.295Z,150
2017-02-23T13:50:33.742Z,160
2017-02-23T13:51:44.142Z,145
2017-02-23T13:52:54.162Z,150
2017-02-23T13:54:04.594Z,165
2017-02-23T13:55:15.260Z,180
2017-02-23T13:56:25.684Z,150
2017-02-23T13:57:35.729Z,145
2017-02-23T13:58:46.332Z,130
2017-02-23T13:59:56.748Z,100
2017-02-23T14:01:07.456Z,80
2017-02-23T14:02:17.499Z,85
2017-02-23T14:03:27.957Z,80
2017-02-23T14:04:37.958Z,90
2017-02-23T14:05:48.457Z,105
2017-02-23T14:06:59.144Z,95
2017-02-23T14:08:09.576Z,90
2017-02-23T14:09:20.052Z,95
2017-02-23T14:10:30.462Z,115
2017-02-23T14:11:40.892Z,145
2017-02-23T14:12:51.726Z,120
2017-02-23T14:14:02.154Z,140
2017-02-23T14:15:12.622Z,145
2017-02-23T14:16:23.048Z,140
2017-02-23T14:17:33.473Z,155
2017-02-23T14:18:44.171Z,170
2017-02-23T14:19:54.212Z,185
2017-02-23T14:21:04.638Z,220
2017-02-23T14:22:14.656Z,305
2017-02-23T14:23:25.072Z,315
2017-02-23T14:24:35.757Z,275
2017-02-23T14:25:46.347Z,260
2017-02-23T14:26:56.643Z,280
2017-02-23T14:28:07.105Z,230
2017-02-23T14:29:17.529Z,210
2017-02-23T14:30:28.345Z,190
2017-02-23T14:31:38.834Z,195
2017-02-23T14:32:49.289Z,180
2017-02-23T14:33:59.800Z,160
2017-02-23T14:35:10.219Z,195
2017-02-23T14:36:20.914Z,190
2017-02-23T14:37:31.348Z,220
2017-02-23T14:38:41.381Z,215
2017-02-23T14:39:51.809Z,190
2017-02-23T14:41:02.271Z,145
2017-02-23T14:42:12.936Z,115
2017-02-23T14:43:23.362Z,105
2017-02-23T14:44:33.794Z,105
2017-02-23T14:45:44.228Z,100
2017-02-23T14:46:54.665Z,125
2017-02-23T14:48:05.407Z,135
2017-02-23T14:49:15.839Z,135
2017-02-23T14:50:26.303Z,120
2017-02-23T14:51:36.338Z,130
2017-02-23T14:52:46.781Z,140
2017-02-23T14:53:57.514Z,190
2017-02-23T14:55:07.948Z,250
2017-02-23T14:56:18.371Z,225
2017-02-23T14:57:28.806Z,205
2017-02-23T14:58:38.891Z,215
2017-02-23T14:59:49.564Z,205
2017-02-23T15:01:00.012Z,180
2017-02-23T15:02:10.439Z,160
2017-02-23T15:03:20.539Z,135
2017-02-23T15:04:30.983Z,135
2017-02-23T15:05:41.647Z,150
2017-02-23T15:06:51.686Z,130
2017-02-23T15:08:01.750Z,105
2017-02-23T15:09:12.176Z,100
2017-02-23T15:10:22.600Z,100
2017-02-23T15:11:33.278Z,95
2017-02-23T15:12:43.327Z,90
2017-02-23T15:13:53.794Z,90
2017-02-23T15:15:04.228Z,90
2017-02-23T15:16:14.651Z,90
2017-02-23T15:17:25.358Z,90
2017-02-23T15:18:35.791Z,90
2017-02-23T15:19:46.304Z,90
2017-02-23T15:20:56.719Z,90
2017-02-23T15:22:07.236Z,85
2017-02-23T15:23:17.905Z,100
2017-02-23T15:24:28.416Z,120
2017-02-23T15:25:38.831Z,150
2017-02-23T15:26:49.272Z,185
2017-02-23T15:27:59.729Z,210
2017-02-23T15:29:10.402Z,230
2017-02-23T15:30:20.811Z,260
2017-02-23T15:31:31.224Z,255
2017-02-23T15:32:41.631Z,230
2017-02-23T15:33:51.646Z,220
2017-02-23T15:35:02.287Z,215
2017-02-23T15:36:12.690Z,215
2017-02-23T15:37:22.719Z,200
2017-02-23T15:38:33.129Z,170
2017-02-23T15:39:43.528Z,140
2017-02-23T15:40:54.164Z,115
2017-02-23T15:42:04.622Z,105
2017-02-23T15:43:15.028Z,90
2017-02-23T15:44:25.463Z,80
2017-02-23T15:45:35.935Z,70
2017-02-23T15:46:46.592Z,65
2017-02-23T15:47:57.049Z,65
2017-02-23T15:49:07.492Z,65
2017-02-23T15:50:17.897Z,60
2017-02-23T15:51:28.302Z,65
2017-02-23T15:52:38.963Z,70
2017-02-23T15:53:49.369Z,70
2017-02-23T15:54:59.811Z,75
2017-02-23T15:56:10.253Z,70
2017-02-23T15:57:20.732Z,80
2017-02-23T15:58:31.523Z,85
2017-02-23T15:59:41.964Z,90
2017-02-23T16:00:52.592Z,105
2017-02-23T16:02:03.027Z,110
2017-02-23T16:03:13.471Z,125
2017-02-23T16:04:23.808Z,140
2017-02-23T16:05:34.282Z,140
2017-02-23T16:06:44.752Z,125
2017-02-23T16:07:55.216Z,125
2017-02-23T16:09:05.650Z,125
2017-02-23T16:10:16.333Z,115
2017-02-23T16:11:26.942Z,95
2017-02-23T16:12:37.364Z,90
2017-02-23T16:13:47.843Z,85
2017-02-23T16:14:58.326Z,80
2017-02-23T16:16:08.580Z,75
2017-02-23T16:17:19.008Z,75
2017-02-23T16:18:29.535Z,70
2017-02-23T16:19:39.969Z,70
2017-02-23T16:20:50.401Z,70
2017-02-23T16:22:00.742Z,65
2017-02-23T16:23:11.198Z,60
2017-02-23T16:24:21.637Z,60
2017-02-23T16:25:31.625Z,60
2017-02-23T16:26:42.245Z,55
2017-02-23T16:27:52.962Z,55
2017-02-23T16:29:02.999Z,50
2017-02-23T16:30:13.019Z,50
2017-02-23T16:31:23.085Z,45
2017-02-23T16:32:33.689Z,35
2017-02-23T16:33:44.419Z,30
2017-02-23T16:34:54.892Z,30
2017-02-23T16:36:05.421Z,25
2017-02-23T16:37:15.864Z,25